Time;durP1;ratioP1;P1;durP2;ratioP2;P2;SDS_P1;SDS_P2;PMS_P1;PMS_P2;Temp;Humidity;BMP_temperature;BMP_pressure;BME280_temperature;BME280_humidity;BME280_pressure;Samples;Min_cycle;Max_cycle;Signal;HPM_P1;HPM_P2
2022/01/06 00:00:43;;;;;;;;;16.00;14.33;;;;;;;;5006040;28;11564;-82
2022/01/06 00:03:11;;;;;;;;;15.00;12.00;;;;;;;;5004795;28;11614;-81
2022/01/06 00:05:39;;;;;;;;;15.50;15.50;;;;;;;;5003222;28;11727;-80
2022/01/06 00:08:06;;;;;;;;;22.33;20.00;;;;;;;;5004967;28;11801;-81
2022/01/06 00:10:35;;;;;;;;;19.00;16.00;;;;;;;;5002867;28;11731;-81
2022/01/06 00:13:09;;;;;;;;;16.25;16.00;;;;;;;;5004656;28;11718;-81
2022/01/06 00:15:43;;;;;;;;;14.50;12.25;;;;;;;;4999743;28;11647;-81
2022/01/06 00:23:39;;;;;;;;;15.00;15.00;;;;;;;;5002145;28;12405;-81
2022/01/06 00:26:09;;;;;;;;;14.33;12.67;;;;;;;;5004164;28;11632;-80
2022/01/06 00:28:36;;;;;;;;;11.33;11.00;;;;;;;;5003883;28;12376;-80
2022/01/06 00:31:04;;;;;;;;;10.33;8.67;;;;;;;;4964128;28;12384;-78
2022/01/06 00:33:33;;;;;;;;;16.00;12.33;;;;;;;;4972798;28;11626;-80
2022/01/06 00:36:01;;;;;;;;;28.00;26.00;;;;;;;;4964435;28;8875;-83
2022/01/06 00:38:28;;;;;;;;;24.67;24.67;;;;;;;;4965786;28;9014;-81
2022/01/06 00:40:56;;;;;;;;;27.00;23.33;;;;;;;;4963890;28;9018;-81
2022/01/06 00:43:25;;;;;;;;;20.00;18.00;;;;;;;;4974237;28;8877;-81
2022/01/06 00:45:53;;;;;;;;;21.67;19.67;;;;;;;;4972685;28;11630;-82
2022/01/06 00:48:20;;;;;;;;;13.00;12.00;;;;;;;;4968568;28;11623;-81
2022/01/06 00:50:48;;;;;;;;;17.33;15.33;;;;;;;;4965736;28;11646;-81
2022/01/06 00:53:15;;;;;;;;;20.33;15.33;;;;;;;;4963338;28;11664;-78
2022/01/06 00:55:42;;;;;;;;;19.00;19.00;;;;;;;;4963195;28;11741;-78
2022/01/06 00:58:10;;;;;;;;;22.25;21.00;;;;;;;;4964112;28;11641;-79
2022/01/06 01:00:40;;;;;;;;;22.50;17.75;;;;;;;;4962912;28;11769;-80
2022/01/06 01:03:10;;;;;;;;;20.00;18.67;;;;;;;;4959693;28;11744;-78
2022/01/06 01:05:38;;;;;;;;;20.00;15.25;;;;;;;;4963584;28;11623;-80
2022/01/06 01:08:06;;;;;;;;;18.50;16.75;;;;;;;;4963714;28;11630;-80
2022/01/06 01:10:33;;;;;;;;;15.25;15.25;;;;;;;;4968608;28;11613;-80
2022/01/06 01:13:00;;;;;;;;;16.75;16.75;;;;;;;;4964983;28;11662;-79
2022/01/06 01:15:28;;;;;;;;;19.50;15.25;;;;;;;;4962817;28;11753;-80
2022/01/06 01:18:05;;;;;;;;;18.25;16.25;;;;;;;;4964566;28;12396;-80
2022/01/06 01:20:33;;;;;;;;;16.00;16.00;;;;;;;;4963624;28;11643;-80
2022/01/06 01:23:01;;;;;;;;;22.50;19.00;;;;;;;;4964870;28;11635;-80
2022/01/06 01:25:28;;;;;;;;;20.75;15.25;;;;;;;;4963292;28;11610;-82
2022/01/06 01:27:57;;;;;;;;;12.75;12.50;;;;;;;;4963767;28;11780;-79
2022/01/06 01:30:30;;;;;;;;;15.50;13.25;;;;;;;;4991631;28;11524;-80
2022/01/06 01:33:00;;;;;;;;;14.25;14.25;;;;;;;;5002454;28;11786;-80
2022/01/06 01:35:31;;;;;;;;;13.50;12.75;;;;;;;;5009403;28;11711;-79
2022/01/06 01:37:59;;;;;;;;;17.75;13.75;;;;;;;;5002543;28;11591;-80
2022/01/06 01:40:27;;;;;;;;;18.00;17.50;;;;;;;;5003190;28;12000;-81
2022/01/06 01:42:54;;;;;;;;;13.75;12.00;;;;;;;;5004358;28;11616;-79
2022/01/06 01:45:28;;;;;;;;;23.75;16.00;;;;;;;;5002755;28;11622;-79
2022/01/06 01:47:57;;;;;;;;;12.25;12.00;;;;;;;;5005355;28;11606;-79
2022/01/06 01:50:26;;;;;;;;;15.00;15.00;;;;;;;;5002517;28;11599;-79
2022/01/06 01:52:56;;;;;;;;;19.50;19.50;;;;;;;;5003020;28;11731;-79
2022/01/06 01:55:26;;;;;;;;;17.00;17.00;;;;;;;;5002402;28;12463;-80
2022/01/06 01:57:54;;;;;;;;;16.25;16.25;;;;;;;;4997790;28;11633;-80
2022/01/06 02:00:26;;;;;;;;;20.00;17.25;;;;;;;;5001528;28;11712;-79
2022/01/06 02:02:54;;;;;;;;;26.50;20.00;;;;;;;;5002699;28;11637;-80
2022/01/06 02:05:26;;;;;;;;;25.50;21.75;;;;;;;;4997939;28;11589;-76
2022/01/06 02:07:56;;;;;;;;;25.00;25.00;;;;;;;;5002209;28;11734;-80
2022/01/06 02:10:23;;;;;;;;;23.00;19.00;;;;;;;;5009435;28;11673;-80
2022/01/06 02:12:54;;;;;;;;;25.50;21.25;;;;;;;;5005832;28;12427;-80
2022/01/06 02:15:21;;;;;;;;;23.50;20.50;;;;;;;;5008808;28;12401;-80
2022/01/06 02:17:49;;;;;;;;;20.25;18.00;;;;;;;;5006825;28;12165;-81
2022/01/06 02:20:20;;;;;;;;;17.75;17.75;;;;;;;;5006469;28;11645;-79
2022/01/06 02:22:48;;;;;;;;;23.75;16.00;;;;;;;;5007605;28;11642;-80
2022/01/06 02:25:17;;;;;;;;;26.25;19.25;;;;;;;;5005819;28;11622;-80
2022/01/06 02:27:45;;;;;;;;;19.00;19.00;;;;;;;;5006622;28;11716;-79
2022/01/06 02:30:13;;;;;;;;;20.00;20.00;;;;;;;;4997858;28;12450;-81
2022/01/06 02:32:41;;;;;;;;;16.25;14.00;;;;;;;;5007987;28;11608;-80
2022/01/06 02:35:10;;;;;;;;;21.25;17.00;;;;;;;;5006673;28;11739;-80
2022/01/06 02:37:39;;;;;;;;;21.75;19.75;;;;;;;;5004033;28;11821;-81
2022/01/06 02:40:12;;;;;;;;;20.25;16.75;;;;;;;;5005267;28;11700;-79
2022/01/06 02:42:43;;;;;;;;;23.25;19.00;;;;;;;;5005986;28;11598;-80
2022/01/06 02:45:10;;;;;;;;;20.75;17.00;;;;;;;;5007126;28;11614;-79
2022/01/06 02:47:38;;;;;;;;;19.25;17.00;;;;;;;;5004790;28;11731;-79
2022/01/06 02:50:07;;;;;;;;;17.50;16.50;;;;;;;;5006870;28;11614;-81
2022/01/06 02:52:34;;;;;;;;;21.00;19.50;;;;;;;;5003845;28;11583;-81
2022/01/06 02:55:03;;;;;;;;;22.00;18.00;;;;;;;;5004490;28;11646;-80
2022/01/06 02:57:31;;;;;;;;;23.00;19.50;;;;;;;;5006302;28;11631;-78
2022/01/06 02:59:58;;;;;;;;;15.50;13.00;;;;;;;;5003454;28;11809;-79
2022/01/06 03:02:26;;;;;;;;;21.00;19.25;;;;;;;;5005875;28;11556;-77
2022/01/06 03:04:53;;;;;;;;;20.00;18.50;;;;;;;;5005306;28;11708;-79
2022/01/06 03:07:20;;;;;;;;;15.75;13.75;;;;;;;;5003576;28;11665;-80
2022/01/06 03:09:54;;;;;;;;;18.75;13.75;;;;;;;;5012379;28;11715;-78
2022/01/06 03:12:28;;;;;;;;;17.00;15.25;;;;;;;;5006074;28;11794;-79
2022/01/06 03:14:55;;;;;;;;;15.25;15.25;;;;;;;;5001784;28;11668;-79
2022/01/06 03:17:23;;;;;;;;;22.50;20.00;;;;;;;;5001492;28;11673;-80
2022/01/06 03:19:51;;;;;;;;;16.75;14.75;;;;;;;;5004612;28;11610;-80
2022/01/06 03:22:18;;;;;;;;;21.25;20.50;;;;;;;;5005722;28;12344;-79
2022/01/06 03:24:45;;;;;;;;;19.00;19.00;;;;;;;;5005351;28;11622;-80
2022/01/06 03:27:12;;;;;;;;;18.00;18.00;;;;;;;;5004504;28;11636;-78
2022/01/06 03:29:41;;;;;;;;;20.25;18.00;;;;;;;;5004851;28;12536;-80
2022/01/06 03:32:09;;;;;;;;;20.00;17.00;;;;;;;;5003802;28;11574;-80
2022/01/06 03:34:37;;;;;;;;;18.00;13.00;;;;;;;;5004347;28;11637;-80
2022/01/06 03:37:06;;;;;;;;;19.00;16.75;;;;;;;;4997901;28;11774;-78
2022/01/06 03:39:33;;;;;;;;;19.00;15.50;;;;;;;;5004513;28;11591;-79
2022/01/06 03:42:01;;;;;;;;;16.25;16.00;;;;;;;;5003259;28;12479;-78
2022/01/06 03:44:28;;;;;;;;;24.75;24.75;;;;;;;;5005020;28;11619;-79
2022/01/06 03:46:57;;;;;;;;;27.00;20.25;;;;;;;;5009247;28;12456;-79
2022/01/06 03:49:24;;;;;;;;;21.50;17.25;;;;;;;;5004133;28;11620;-77
2022/01/06 03:51:52;;;;;;;;;16.00;16.00;;;;;;;;4996957;28;11624;-80
2022/01/06 03:54:19;;;;;;;;;18.00;15.75;;;;;;;;5004345;28;11639;-78
2022/01/06 03:56:48;;;;;;;;;17.00;15.50;;;;;;;;5004595;28;12443;-77
2022/01/06 03:59:16;;;;;;;;;17.50;17.50;;;;;;;;5003737;28;11602;-79
2022/01/06 04:01:44;;;;;;;;;16.50;16.50;;;;;;;;5003505;28;11568;-79
2022/01/06 04:04:13;;;;;;;;;20.25;18.50;;;;;;;;5004572;28;11670;-77
2022/01/06 04:06:40;;;;;;;;;23.75;19.75;;;;;;;;5004998;28;11744;-78
2022/01/06 04:09:08;;;;;;;;;17.00;17.00;;;;;;;;5004274;28;11818;-78
2022/01/06 04:11:35;;;;;;;;;13.50;12.00;;;;;;;;4988129;28;11681;-78
2022/01/06 04:14:03;;;;;;;;;15.00;15.00;;;;;;;;5003810;28;11582;-78
2022/01/06 04:16:34;;;;;;;;;16.75;14.25;;;;;;;;5005090;28;11617;-77
2022/01/06 04:19:02;;;;;;;;;16.00;15.00;;;;;;;;5003527;28;11707;-79
2022/01/06 04:21:31;;;;;;;;;16.75;12.00;;;;;;;;5006146;28;11638;-79
2022/01/06 04:23:58;;;;;;;;;16.00;14.00;;;;;;;;5004521;28;12422;-79
2022/01/06 04:26:25;;;;;;;;;16.00;16.00;;;;;;;;5002370;28;11750;-79
2022/01/06 04:28:53;;;;;;;;;18.75;16.75;;;;;;;;5003773;28;11690;-77
2022/01/06 04:31:20;;;;;;;;;19.50;17.00;;;;;;;;5004672;28;11578;-78
2022/01/06 04:33:48;;;;;;;;;8.50;8.50;;;;;;;;5004237;28;11604;-77
2022/01/06 04:36:15;;;;;;;;;16.25;16.25;;;;;;;;5003127;28;11612;-76
2022/01/06 04:38:44;;;;;;;;;23.25;20.25;;;;;;;;5003821;28;11635;-79
2022/01/06 04:41:11;;;;;;;;;18.00;15.25;;;;;;;;5003401;28;11598;-78
2022/01/06 04:43:39;;;;;;;;;18.50;17.00;;;;;;;;5003616;28;11832;-77
2022/01/06 04:46:06;;;;;;;;;23.50;21.25;;;;;;;;4999011;28;11608;-78
2022/01/06 04:48:35;;;;;;;;;23.00;17.50;;;;;;;;5006594;28;11619;-78
2022/01/06 04:51:02;;;;;;;;;16.75;16.00;;;;;;;;5004311;28;11621;-78
2022/01/06 04:53:30;;;;;;;;;15.50;13.50;;;;;;;;5003405;28;11744;-78
2022/01/06 04:55:59;;;;;;;;;18.50;16.00;;;;;;;;5003019;28;11620;-78
2022/01/06 04:58:27;;;;;;;;;20.75;17.25;;;;;;;;5003150;28;11595;-78
2022/01/06 05:00:54;;;;;;;;;12.50;10.25;;;;;;;;5002463;28;11558;-79
2022/01/06 05:03:21;;;;;;;;;16.00;16.00;;;;;;;;5004823;28;11575;-77
2022/01/06 05:05:48;;;;;;;;;22.00;17.00;;;;;;;;5001913;28;11625;-78
2022/01/06 05:08:16;;;;;;;;;20.75;15.75;;;;;;;;5003356;28;11629;-78
2022/01/06 05:10:44;;;;;;;;;15.25;15.25;;;;;;;;5001790;28;11647;-79
2022/01/06 05:13:13;;;;;;;;;17.50;15.00;;;;;;;;5004457;28;11715;-78
2022/01/06 05:15:40;;;;;;;;;13.00;13.00;;;;;;;;5009037;28;11746;-78
2022/01/06 05:18:08;;;;;;;;;17.50;15.75;;;;;;;;5003612;28;11667;-78
2022/01/06 05:20:37;;;;;;;;;17.00;14.25;;;;;;;;5002466;28;11597;-78
2022/01/06 05:23:04;;;;;;;;;16.00;16.00;;;;;;;;4999098;28;11613;-79
2022/01/06 05:25:33;;;;;;;;;13.00;13.00;;;;;;;;5001820;28;11627;-81
2022/01/06 05:28:00;;;;;;;;;16.00;13.50;;;;;;;;5001216;28;11688;-78
2022/01/06 05:30:29;;;;;;;;;15.75;15.75;;;;;;;;4999886;28;11605;-80
2022/01/06 05:32:56;;;;;;;;;18.50;15.00;;;;;;;;5002368;28;11620;-81
2022/01/06 05:35:23;;;;;;;;;15.50;15.50;;;;;;;;5001146;28;11964;-75
2022/01/06 05:37:51;;;;;;;;;17.25;15.75;;;;;;;;5001849;28;11604;-78
2022/01/06 05:40:18;;;;;;;;;18.50;16.00;;;;;;;;5002445;28;11632;-78
2022/01/06 05:42:48;;;;;;;;;16.00;16.00;;;;;;;;4999943;28;11635;-80
2022/01/06 05:45:16;;;;;;;;;13.50;12.75;;;;;;;;5002077;28;11613;-79
2022/01/06 05:47:45;;;;;;;;;17.25;16.00;;;;;;;;5000832;28;12392;-81
2022/01/06 05:50:12;;;;;;;;;23.50;16.25;;;;;;;;5002142;28;11669;-81
2022/01/06 05:52:39;;;;;;;;;19.00;19.00;;;;;;;;5002703;28;11604;-80
2022/01/06 05:55:07;;;;;;;;;15.50;9.75;;;;;;;;5002609;28;11604;-78
2022/01/06 05:57:35;;;;;;;;;19.00;16.00;;;;;;;;5008088;28;11666;-75
2022/01/06 06:00:02;;;;;;;;;16.00;16.00;;;;;;;;5002221;28;11615;-80
2022/01/06 06:02:29;;;;;;;;;16.50;13.50;;;;;;;;5001405;28;11653;-78
2022/01/06 06:04:58;;;;;;;;;19.50;19.50;;;;;;;;5003401;28;11653;-77
2022/01/06 06:07:25;;;;;;;;;23.50;18.75;;;;;;;;5004893;28;11779;-81
2022/01/06 06:09:53;;;;;;;;;11.00;11.00;;;;;;;;5004423;28;11625;-75
2022/01/06 06:12:21;;;;;;;;;20.50;20.50;;;;;;;;5003414;28;11584;-75
2022/01/06 06:14:48;;;;;;;;;15.50;15.50;;;;;;;;5002853;28;11623;-73
2022/01/06 06:17:15;;;;;;;;;20.25;18.25;;;;;;;;5002387;28;11610;-71
2022/01/06 06:19:42;;;;;;;;;22.00;19.25;;;;;;;;5001699;28;11700;-71
2022/01/06 06:22:11;;;;;;;;;8.25;5.75;;;;;;;;5001829;28;11652;-71
2022/01/06 06:24:39;;;;;;;;;18.50;16.25;;;;;;;;5000668;28;11578;-72
2022/01/06 06:27:06;;;;;;;;;24.00;19.75;;;;;;;;5002040;28;11627;-70
2022/01/06 06:29:34;;;;;;;;;19.25;17.75;;;;;;;;5001364;28;11742;-73
2022/01/06 06:32:01;;;;;;;;;14.50;12.00;;;;;;;;5000103;28;11677;-72
2022/01/06 06:34:29;;;;;;;;;19.25;16.50;;;;;;;;4999489;28;11601;-72
2022/01/06 06:36:56;;;;;;;;;17.50;14.50;;;;;;;;4998663;28;11592;-71
2022/01/06 06:39:25;;;;;;;;;14.25;12.75;;;;;;;;5002124;28;12045;-73
2022/01/06 06:41:52;;;;;;;;;16.75;15.25;;;;;;;;4999086;28;11601;-70
2022/01/06 06:44:19;;;;;;;;;19.00;16.50;;;;;;;;4998640;28;12353;-71
2022/01/06 06:46:46;;;;;;;;;18.75;16.25;;;;;;;;4998501;28;11609;-71
2022/01/06 06:49:14;;;;;;;;;15.25;14.00;;;;;;;;5000609;28;12381;-72
2022/01/06 06:51:41;;;;;;;;;18.50;16.75;;;;;;;;4998203;28;11602;-72
2022/01/06 06:54:08;;;;;;;;;14.00;14.00;;;;;;;;4999877;28;11576;-71
2022/01/06 06:56:37;;;;;;;;;13.00;13.00;;;;;;;;5004050;28;12356;-74
2022/01/06 06:59:07;;;;;;;;;15.75;12.25;;;;;;;;5002314;28;11707;-75
2022/01/06 07:01:34;;;;;;;;;19.00;14.25;;;;;;;;5002786;28;11564;-76
2022/01/06 07:04:02;;;;;;;;;14.00;14.00;;;;;;;;5001943;28;11780;-75
2022/01/06 07:06:30;;;;;;;;;26.25;19.50;;;;;;;;5001674;28;11639;-74
2022/01/06 07:08:57;;;;;;;;;18.25;16.00;;;;;;;;4984584;28;11620;-74
2022/01/06 07:11:25;;;;;;;;;15.75;14.00;;;;;;;;5005332;28;11616;-75
2022/01/06 07:13:53;;;;;;;;;19.50;16.25;;;;;;;;5002113;28;11665;-75
2022/01/06 07:16:21;;;;;;;;;14.25;13.75;;;;;;;;5001076;28;12360;-76
2022/01/06 07:18:48;;;;;;;;;17.25;16.25;;;;;;;;5001546;28;11741;-75
2022/01/06 07:21:15;;;;;;;;;17.50;14.00;;;;;;;;5004207;28;11615;-76
2022/01/06 07:23:43;;;;;;;;;18.75;16.50;;;;;;;;5002782;28;11619;-76
2022/01/06 07:26:10;;;;;;;;;15.25;15.25;;;;;;;;5003536;28;11617;-78
2022/01/06 07:28:38;;;;;;;;;17.25;16.25;;;;;;;;5004581;28;11603;-74
2022/01/06 07:31:07;;;;;;;;;15.25;11.25;;;;;;;;4977765;28;11649;-77
2022/01/06 07:33:35;;;;;;;;;12.00;12.00;;;;;;;;4983632;28;11632;-82
2022/01/06 07:36:02;;;;;;;;;16.00;16.00;;;;;;;;4983995;28;11774;-77
2022/01/06 07:38:30;;;;;;;;;19.75;18.75;;;;;;;;4984290;28;11658;-76
2022/01/06 07:40:58;;;;;;;;;18.75;16.25;;;;;;;;4979988;28;11645;-74
2022/01/06 07:43:25;;;;;;;;;17.00;15.00;;;;;;;;4984199;28;12412;-75
2022/01/06 07:45:53;;;;;;;;;18.50;15.25;;;;;;;;4982373;28;11629;-77
2022/01/06 07:48:26;;;;;;;;;16.25;16.25;;;;;;;;4982623;28;12476;-75
2022/01/06 07:50:54;;;;;;;;;16.25;16.25;;;;;;;;4984365;28;11635;-74
2022/01/06 07:53:21;;;;;;;;;17.00;17.00;;;;;;;;4984791;28;11627;-75
2022/01/06 07:55:48;;;;;;;;;19.00;16.50;;;;;;;;4984516;28;12134;-76
2022/01/06 07:58:16;;;;;;;;;16.25;15.50;;;;;;;;4985319;28;11651;-76
2022/01/06 08:00:43;;;;;;;;;16.50;15.00;;;;;;;;4982793;28;11594;-75
2022/01/06 08:03:10;;;;;;;;;14.75;14.75;;;;;;;;4985586;28;11744;-75
2022/01/06 08:05:39;;;;;;;;;15.00;15.00;;;;;;;;4983791;28;11736;-76
2022/01/06 08:08:06;;;;;;;;;19.25;19.25;;;;;;;;4984209;28;12461;-75
2022/01/06 08:10:33;;;;;;;;;20.50;18.50;;;;;;;;4986567;28;11653;-75
2022/01/06 08:13:00;;;;;;;;;15.25;15.25;;;;;;;;4986050;28;11642;-75
2022/01/06 08:15:28;;;;;;;;;20.50;17.00;;;;;;;;4985065;28;11605;-75
2022/01/06 08:17:55;;;;;;;;;15.00;13.00;;;;;;;;4984822;28;12403;-75
2022/01/06 08:20:22;;;;;;;;;25.25;24.25;;;;;;;;4985890;28;11640;-75
2022/01/06 08:22:51;;;;;;;;;20.00;18.25;;;;;;;;4985693;28;11610;-75
2022/01/06 08:25:18;;;;;;;;;23.25;21.00;;;;;;;;4985197;28;11644;-75
2022/01/06 08:27:46;;;;;;;;;19.25;19.25;;;;;;;;4986190;28;11624;-75
2022/01/06 08:30:13;;;;;;;;;21.50;19.50;;;;;;;;4997321;28;11617;-75
2022/01/06 08:32:41;;;;;;;;;21.00;21.00;;;;;;;;5005695;28;12350;-75
2022/01/06 08:35:08;;;;;;;;;15.50;15.50;;;;;;;;5004079;28;11641;-75
2022/01/06 08:37:36;;;;;;;;;15.50;15.50;;;;;;;;5005398;28;11580;-75
2022/01/06 08:40:06;;;;;;;;;19.00;19.00;;;;;;;;5004683;28;11591;-75
2022/01/06 08:42:33;;;;;;;;;12.00;12.00;;;;;;;;5005361;28;12456;-75
2022/01/06 08:45:00;;;;;;;;;19.75;15.25;;;;;;;;5005495;28;12383;-75
2022/01/06 08:47:29;;;;;;;;;15.00;12.25;;;;;;;;5004721;28;11626;-75
2022/01/06 08:49:57;;;;;;;;;19.25;18.50;;;;;;;;5005027;28;11600;-75
2022/01/06 08:52:24;;;;;;;;;15.00;15.00;;;;;;;;4999194;28;11754;-75
2022/01/06 08:54:52;;;;;;;;;17.50;15.00;;;;;;;;5000620;28;11610;-75
2022/01/06 08:57:21;;;;;;;;;16.25;16.25;;;;;;;;5004463;28;11665;-73
2022/01/06 08:59:49;;;;;;;;;17.25;17.25;;;;;;;;5004089;28;11746;-73
2022/01/06 09:02:16;;;;;;;;;18.50;16.00;;;;;;;;5004706;28;11564;-74
2022/01/06 09:04:43;;;;;;;;;16.00;15.00;;;;;;;;5003651;28;11618;-75
2022/01/06 09:07:11;;;;;;;;;15.00;13.00;;;;;;;;5004766;28;11633;-74
2022/01/06 09:09:39;;;;;;;;;16.75;16.75;;;;;;;;5004102;28;11641;-74
2022/01/06 09:12:07;;;;;;;;;15.00;15.00;;;;;;;;5005411;28;11667;-73
2022/01/06 09:14:36;;;;;;;;;16.00;13.75;;;;;;;;5004281;28;11726;-74
2022/01/06 09:17:03;;;;;;;;;16.25;16.25;;;;;;;;5004889;28;11096;-74
2022/01/06 09:19:30;;;;;;;;;15.50;14.50;;;;;;;;5006062;28;12421;-74
2022/01/06 09:21:58;;;;;;;;;20.00;17.25;;;;;;;;5004189;28;11625;-74
2022/01/06 09:24:25;;;;;;;;;17.00;17.00;;;;;;;;5004509;28;11738;-75
2022/01/06 09:26:52;;;;;;;;;21.50;20.00;;;;;;;;4999537;28;11603;-74
2022/01/06 09:29:19;;;;;;;;;24.00;19.75;;;;;;;;5002750;28;11637;-74
2022/01/06 09:31:48;;;;;;;;;16.00;15.75;;;;;;;;5002669;28;11726;-73
2022/01/06 09:34:15;;;;;;;;;21.75;19.75;;;;;;;;5004496;28;11589;-74
2022/01/06 09:36:44;;;;;;;;;20.25;18.25;;;;;;;;5003202;28;12391;-73
2022/01/06 09:39:13;;;;;;;;;23.25;21.25;;;;;;;;5000974;28;11620;-73
2022/01/06 09:41:40;;;;;;;;;23.50;19.50;;;;;;;;5004179;28;11641;-74
2022/01/06 09:44:08;;;;;;;;;27.25;21.50;;;;;;;;5003073;28;11624;-74
2022/01/06 09:46:35;;;;;;;;;18.75;18.00;;;;;;;;5004108;28;12516;-74
2022/01/06 09:49:04;;;;;;;;;22.00;22.00;;;;;;;;5003279;28;11601;-74
2022/01/06 09:51:32;;;;;;;;;23.00;19.75;;;;;;;;5003992;28;11741;-74
2022/01/06 09:54:01;;;;;;;;;16.00;16.00;;;;;;;;5003476;28;11731;-74
2022/01/06 09:56:29;;;;;;;;;19.25;17.00;;;;;;;;5003528;28;11730;-74
2022/01/06 09:58:57;;;;;;;;;20.75;18.50;;;;;;;;5003559;28;11601;-74
2022/01/06 10:01:24;;;;;;;;;17.75;15.50;;;;;;;;4998467;28;11581;-74
2022/01/06 10:03:52;;;;;;;;;15.50;12.75;;;;;;;;5003860;28;11702;-74
2022/01/06 10:06:22;;;;;;;;;17.50;16.25;;;;;;;;5003405;28;11599;-73
2022/01/06 10:08:51;;;;;;;;;18.00;16.00;;;;;;;;5004248;28;11689;-75
2022/01/06 10:11:20;;;;;;;;;17.75;14.25;;;;;;;;5004663;28;11621;-74
2022/01/06 10:13:56;;;;;;;;;15.75;15.75;;;;;;;;5003660;28;11679;-73
2022/01/06 10:16:24;;;;;;;;;14.00;14.00;;;;;;;;5004398;28;12428;-73
2022/01/06 10:19:04;;;;;;;;;20.75;20.75;;;;;;;;5002170;28;11735;-74
2022/01/06 10:21:36;;;;;;;;;27.75;23.25;;;;;;;;5004074;28;11621;-75
2022/01/06 10:24:07;;;;;;;;;24.25;17.75;;;;;;;;5003243;28;11642;-74
2022/01/06 10:26:35;;;;;;;;;18.25;18.25;;;;;;;;5003989;28;12438;-74
2022/01/06 10:29:04;;;;;;;;;14.00;10.00;;;;;;;;5015164;28;11589;-74
2022/01/06 10:31:32;;;;;;;;;17.50;17.50;;;;;;;;5005176;28;11565;-75
2022/01/06 10:34:00;;;;;;;;;15.25;12.75;;;;;;;;5008021;28;11639;-75
2022/01/06 10:36:29;;;;;;;;;19.75;19.75;;;;;;;;5006171;28;11554;-74
2022/01/06 10:38:59;;;;;;;;;18.00;18.00;;;;;;;;5006972;28;11673;-75
2022/01/06 10:41:28;;;;;;;;;17.75;17.00;;;;;;;;5005564;28;11559;-75
2022/01/06 10:43:56;;;;;;;;;24.50;18.25;;;;;;;;5008050;28;11669;-76
2022/01/06 10:46:31;;;;;;;;;19.50;17.25;;;;;;;;5017413;28;11587;-75
2022/01/06 10:49:00;;;;;;;;;20.50;18.25;;;;;;;;5006408;28;11566;-75
2022/01/06 10:51:38;;;;;;;;;24.00;17.50;;;;;;;;5007434;28;12397;-76
2022/01/06 10:54:12;;;;;;;;;14.25;14.00;;;;;;;;5002071;28;12405;-76
2022/01/06 10:56:40;;;;;;;;;18.25;18.25;;;;;;;;5007087;28;11571;-75
2022/01/06 10:59:07;;;;;;;;;18.25;18.25;;;;;;;;5006366;28;11543;-75
2022/01/06 11:01:36;;;;;;;;;22.00;17.50;;;;;;;;5000225;28;12266;-76
2022/01/06 11:04:03;;;;;;;;;16.25;14.75;;;;;;;;5007158;28;11514;-75
2022/01/06 11:06:31;;;;;;;;;14.75;13.00;;;;;;;;5001335;28;11519;-75
2022/01/06 11:08:59;;;;;;;;;19.25;14.00;;;;;;;;5005702;28;11549;-75
2022/01/06 11:11:43;;;;;;;;;19.00;16.25;;;;;;;;5006862;28;11691;-76
2022/01/06 11:14:14;;;;;;;;;24.25;14.00;;;;;;;;5007855;28;11604;-75
2022/01/06 11:16:43;;;;;;;;;18.00;12.50;;;;;;;;5006174;28;11574;-76
2022/01/06 11:19:12;;;;;;;;;15.50;15.50;;;;;;;;5007006;28;11582;-76
2022/01/06 11:21:41;;;;;;;;;14.75;14.75;;;;;;;;5006810;28;11539;-76
2022/01/06 11:24:13;;;;;;;;;14.50;14.50;;;;;;;;5005351;28;11574;-76
2022/01/06 11:26:43;;;;;;;;;17.00;17.00;;;;;;;;5001709;28;11587;-75
2022/01/06 11:29:12;;;;;;;;;15.75;15.75;;;;;;;;5001296;28;11571;-76
2022/01/06 11:31:41;;;;;;;;;18.25;16.50;;;;;;;;5004629;28;11489;-75
2022/01/06 11:34:14;;;;;;;;;22.00;18.25;;;;;;;;5005800;28;11567;-76
2022/01/06 11:36:42;;;;;;;;;19.00;18.25;;;;;;;;5008153;28;11704;-77
2022/01/06 11:39:20;;;;;;;;;21.25;17.75;;;;;;;;5006683;28;11553;-75
2022/01/06 11:41:51;;;;;;;;;16.50;16.50;;;;;;;;5003653;28;11548;-74
2022/01/06 11:44:19;;;;;;;;;14.50;10.25;;;;;;;;5005807;28;11551;-76
2022/01/06 11:46:49;;;;;;;;;15.75;14.00;;;;;;;;5004266;28;12416;-78
2022/01/06 11:49:16;;;;;;;;;11.75;11.25;;;;;;;;5005630;28;11204;-74
2022/01/06 11:51:44;;;;;;;;;13.00;13.00;;;;;;;;5005190;28;11150;-77
2022/01/06 11:54:17;;;;;;;;;13.25;10.50;;;;;;;;5004944;28;11159;-77
2022/01/06 11:56:45;;;;;;;;;9.75;7.25;;;;;;;;5004730;28;11297;-77
2022/01/06 11:59:14;;;;;;;;;8.00;8.00;;;;;;;;5004332;28;10916;-75
2022/01/06 12:01:50;;;;;;;;;10.75;9.25;;;;;;;;5004555;28;11638;-75
2022/01/06 12:04:19;;;;;;;;;8.00;8.00;;;;;;;;4999941;28;11041;-75
2022/01/06 12:06:47;;;;;;;;;7.50;7.50;;;;;;;;5004997;28;10781;-75
2022/01/06 12:09:18;;;;;;;;;10.75;9.00;;;;;;;;5006013;28;10656;-75
2022/01/06 12:11:45;;;;;;;;;16.00;10.50;;;;;;;;5003168;28;10749;-75
2022/01/06 12:14:24;;;;;;;;;7.25;7.25;;;;;;;;5003819;28;12159;-75
2022/01/06 12:16:52;;;;;;;;;6.50;6.50;;;;;;;;5003744;28;10919;-75
2022/01/06 12:19:20;;;;;;;;;7.75;6.25;;;;;;;;5005794;28;12198;-76
2022/01/06 12:21:49;;;;;;;;;9.00;8.25;;;;;;;;5003647;28;10729;-78
2022/01/06 12:24:17;;;;;;;;;13.75;7.50;;;;;;;;5004974;28;10941;-79
2022/01/06 12:26:45;;;;;;;;;7.00;7.00;;;;;;;;5009125;28;10917;-79
2022/01/06 12:29:17;;;;;;;;;5.00;5.00;;;;;;;;5014726;28;10750;-76
2022/01/06 12:31:45;;;;;;;;;3.00;3.00;;;;;;;;5005056;28;11646;-75
2022/01/06 12:34:14;;;;;;;;;7.00;5.75;;;;;;;;5003102;28;10637;-74
2022/01/06 12:36:43;;;;;;;;;6.00;6.00;;;;;;;;5004911;28;10792;-75
2022/01/06 12:39:12;;;;;;;;;10.25;7.00;;;;;;;;5002671;28;10859;-80
2022/01/06 12:41:40;;;;;;;;;2.25;2.25;;;;;;;;5004845;28;11731;-76
2022/01/06 12:44:09;;;;;;;;;7.00;6.00;;;;;;;;5005109;28;10782;-76
2022/01/06 12:46:39;;;;;;;;;9.25;5.75;;;;;;;;5004200;28;10826;-76
2022/01/06 12:49:08;;;;;;;;;6.00;6.00;;;;;;;;5005355;28;10792;-76
2022/01/06 12:51:37;;;;;;;;;6.25;5.50;;;;;;;;5002146;28;10766;-76
2022/01/06 12:54:08;;;;;;;;;5.75;5.75;;;;;;;;5003748;28;10797;-76
2022/01/06 12:56:37;;;;;;;;;2.00;1.50;;;;;;;;5004311;28;10711;-76
2022/01/06 12:59:10;;;;;;;;;5.50;5.00;;;;;;;;5004194;28;10748;-76
2022/01/06 13:01:39;;;;;;;;;3.00;3.00;;;;;;;;5005379;28;10443;-76
2022/01/06 13:04:07;;;;;;;;;3.00;3.00;;;;;;;;4990866;28;10535;-76
2022/01/06 13:06:36;;;;;;;;;3.50;3.50;;;;;;;;5004921;28;10648;-76
2022/01/06 13:09:16;;;;;;;;;5.00;3.00;;;;;;;;5003735;28;10436;-75
2022/01/06 13:11:48;;;;;;;;;6.00;3.00;;;;;;;;5005575;28;10439;-76
2022/01/06 13:14:28;;;;;;;;;8.75;3.50;;;;;;;;5004580;28;10397;-76
2022/01/06 13:17:08;;;;;;;;;6.00;4.00;;;;;;;;5002905;28;10438;-76
2022/01/06 13:19:38;;;;;;;;;3.00;3.00;;;;;;;;5006202;28;10328;-76
2022/01/06 13:22:06;;;;;;;;;5.00;5.00;;;;;;;;5003529;28;10276;-76
2022/01/06 13:24:35;;;;;;;;;3.00;1.75;;;;;;;;5004828;28;10281;-76
2022/01/06 13:27:08;;;;;;;;;5.00;2.00;;;;;;;;5003865;28;10293;-76
2022/01/06 13:29:38;;;;;;;;;1.00;1.00;;;;;;;;5016754;28;10280;-76
2022/01/06 13:32:09;;;;;;;;;5.00;2.50;;;;;;;;5003960;28;10109;-76
2022/01/06 13:34:40;;;;;;;;;2.25;2.25;;;;;;;;5002069;28;10987;-76
2022/01/06 13:37:13;;;;;;;;;4.25;4.25;;;;;;;;5004331;28;10120;-76
2022/01/06 13:39:43;;;;;;;;;3.00;1.50;;;;;;;;5001792;28;10127;-76
2022/01/06 13:42:22;;;;;;;;;3.00;3.00;;;;;;;;5005159;28;9936;-76
2022/01/06 13:44:52;;;;;;;;;2.75;2.75;;;;;;;;5004276;28;9828;-76
2022/01/06 13:47:33;;;;;;;;;3.75;3.00;;;;;;;;5003023;28;9852;-76
2022/01/06 13:52:50;;;;;;;;;6.50;6.00;;;;;;;;4998677;28;9769;-76
2022/01/06 13:55:18;;;;;;;;;6.50;3.00;;;;;;;;5004481;28;9890;-76
2022/01/06 13:57:45;;;;;;;;;3.50;3.50;;;;;;;;5003395;28;9897;-76
2022/01/06 14:00:15;;;;;;;;;7.00;5.50;;;;;;;;5002474;28;10566;-76
2022/01/06 14:02:45;;;;;;;;;2.25;2.25;;;;;;;;4993288;28;9813;-76
2022/01/06 14:05:16;;;;;;;;;4.00;4.00;;;;;;;;5005112;28;9834;-75
2022/01/06 14:07:43;;;;;;;;;2.25;2.25;;;;;;;;5007129;28;10101;-76
2022/01/06 14:10:10;;;;;;;;;1.00;1.00;;;;;;;;5012569;28;10292;-77
2022/01/06 14:12:37;;;;;;;;;6.00;2.75;;;;;;;;5007960;28;10275;-76
2022/01/06 14:15:06;;;;;;;;;3.75;3.00;;;;;;;;5007074;28;11079;-75
2022/01/06 14:17:33;;;;;;;;;3.50;2.00;;;;;;;;5005018;28;10272;-75
2022/01/06 14:20:02;;;;;;;;;1.00;1.00;;;;;;;;5006103;28;10296;-75
2022/01/06 14:22:29;;;;;;;;;1.75;1.75;;;;;;;;5005076;28;10175;-76
2022/01/06 14:24:56;;;;;;;;;5.00;2.00;;;;;;;;5004496;28;10227;-75
2022/01/06 14:27:24;;;;;;;;;2.00;2.00;;;;;;;;5004245;28;10314;-75
2022/01/06 14:29:51;;;;;;;;;4.25;3.00;;;;;;;;5004869;28;10265;-75
2022/01/06 14:32:18;;;;;;;;;4.50;3.00;;;;;;;;5006230;28;10377;-75
2022/01/06 14:34:45;;;;;;;;;1.00;1.00;;;;;;;;5006702;28;11095;-74
2022/01/06 14:37:14;;;;;;;;;5.25;2.50;;;;;;;;5007048;28;10203;-74